sensor_id;sensor_type;location;lat;lon;timestamp;pressure;altitude;pressure_sealevel;temperature;humidity
37856;BME280;23694;43.274;26.924;2022-07-06T00:01:49;98736.34;;;21.72;48.90
37856;BME280;23694;43.274;26.924;2022-07-06T00:04:19;98735.06;;;21.68;49.09
37856;BME280;23694;43.274;26.924;2022-07-06T00:06:46;98734.13;;;21.61;49.07
37856;BME280;23694;43.274;26.924;2022-07-06T00:09:12;98736.06;;;21.67;48.74
37856;BME280;23694;43.274;26.924;2022-07-06T00:11:38;98731.63;;;21.60;49.59
37856;BME280;23694;43.274;26.924;2022-07-06T00:14:05;98723.56;;;21.68;49.10
37856;BME280;23694;43.274;26.924;2022-07-06T00:16:32;98715.75;;;21.66;49.04
37856;BME280;23694;43.274;26.924;2022-07-06T00:18:58;98715.56;;;21.68;48.80
37856;BME280;23694;43.274;26.924;2022-07-06T00:21:24;98715.66;;;21.60;49.00
37856;BME280;23694;43.274;26.924;2022-07-06T00:23:50;98715.47;;;21.61;49.29
37856;BME280;23694;43.274;26.924;2022-07-06T00:26:20;98709.31;;;21.61;49.01
37856;BME280;23694;43.274;26.924;2022-07-06T00:28:46;98703.97;;;21.61;48.92
37856;BME280;23694;43.274;26.924;2022-07-06T00:31:12;98699.75;;;21.66;48.72
37856;BME280;23694;43.274;26.924;2022-07-06T00:33:39;98707.22;;;21.71;48.79
37856;BME280;23694;43.274;26.924;2022-07-06T00:36:05;98694.34;;;21.74;48.64
37856;BME280;23694;43.274;26.924;2022-07-06T00:38:31;98699.22;;;21.71;48.67
37856;BME280;23694;43.274;26.924;2022-07-06T00:40:57;98702.59;;;21.65;49.00
37856;BME280;23694;43.274;26.924;2022-07-06T00:43:23;98696.91;;;21.68;48.72
37856;BME280;23694;43.274;26.924;2022-07-06T00:45:49;98699.47;;;21.61;48.73
37856;BME280;23694;43.274;26.924;2022-07-06T00:48:15;98701.84;;;21.56;49.02
37856;BME280;23694;43.274;26.924;2022-07-06T00:50:43;98704.06;;;21.52;48.93
37856;BME280;23694;43.274;26.924;2022-07-06T00:53:09;98702.25;;;21.45;48.63
37856;BME280;23694;43.274;26.924;2022-07-06T00:55:37;98703.94;;;21.46;49.08
37856;BME280;23694;43.274;26.924;2022-07-06T00:58:07;98709.59;;;21.43;48.90
37856;BME280;23694;43.274;26.924;2022-07-06T01:00:34;98702.09;;;21.46;49.14
37856;BME280;23694;43.274;26.924;2022-07-06T01:03:01;98700.28;;;21.47;49.02
37856;BME280;23694;43.274;26.924;2022-07-06T01:05:28;98698.63;;;21.46;49.55
37856;BME280;23694;43.274;26.924;2022-07-06T01:07:54;98693.94;;;21.48;49.35
37856;BME280;23694;43.274;26.924;2022-07-06T01:10:21;98699.47;;;21.38;49.26
37856;BME280;23694;43.274;26.924;2022-07-06T01:12:48;98697.34;;;21.34;49.42
37856;BME280;23694;43.274;26.924;2022-07-06T01:15:17;98697.72;;;21.31;49.53
37856;BME280;23694;43.274;26.924;2022-07-06T01:17:44;98695.44;;;21.19;49.53
37856;BME280;23694;43.274;26.924;2022-07-06T01:22:36;98690.84;;;21.13;50.16
37856;BME280;23694;43.274;26.924;2022-07-06T01:25:04;98687.34;;;21.13;49.97
37856;BME280;23694;43.274;26.924;2022-07-06T01:27:31;98682.19;;;21.11;50.49
37856;BME280;23694;43.274;26.924;2022-07-06T01:29:57;98688.34;;;21.12;50.44
37856;BME280;23694;43.274;26.924;2022-07-06T01:32:23;98683.56;;;21.07;50.39
37856;BME280;23694;43.274;26.924;2022-07-06T01:34:49;98683.78;;;20.98;50.73
37856;BME280;23694;43.274;26.924;2022-07-06T01:37:15;98680.78;;;21.01;50.27
37856;BME280;23694;43.274;26.924;2022-07-06T01:39:41;98687.81;;;20.94;50.46
37856;BME280;23694;43.274;26.924;2022-07-06T01:42:07;98682.66;;;20.92;50.31
37856;BME280;23694;43.274;26.924;2022-07-06T01:44:33;98680.72;;;20.86;50.79
37856;BME280;23694;43.274;26.924;2022-07-06T01:46:59;98673.38;;;20.88;50.82
37856;BME280;23694;43.274;26.924;2022-07-06T01:49:25;98675.69;;;20.91;50.43
37856;BME280;23694;43.274;26.924;2022-07-06T01:51:51;98673.56;;;20.86;50.32
37856;BME280;23694;43.274;26.924;2022-07-06T01:54:17;98677.22;;;20.85;50.64
37856;BME280;23694;43.274;26.924;2022-07-06T01:56:43;98675.75;;;20.83;50.31
37856;BME280;23694;43.274;26.924;2022-07-06T01:59:09;98682.91;;;20.74;50.24
37856;BME280;23694;43.274;26.924;2022-07-06T02:01:36;98678.44;;;20.75;50.37
37856;BME280;23694;43.274;26.924;2022-07-06T02:04:02;98686.09;;;20.70;50.60
37856;BME280;23694;43.274;26.924;2022-07-06T02:06:28;98680.66;;;20.63;50.61
37856;BME280;23694;43.274;26.924;2022-07-06T02:08:54;98691.31;;;20.63;50.50
37856;BME280;23694;43.274;26.924;2022-07-06T02:11:20;98687.50;;;20.57;51.41
37856;BME280;23694;43.274;26.924;2022-07-06T02:13:46;98693.19;;;20.54;50.79
37856;BME280;23694;43.274;26.924;2022-07-06T02:16:12;98682.50;;;20.63;50.40
37856;BME280;23694;43.274;26.924;2022-07-06T02:18:39;98679.00;;;20.62;50.20
37856;BME280;23694;43.274;26.924;2022-07-06T02:21:05;98684.44;;;20.69;49.80
37856;BME280;23694;43.274;26.924;2022-07-06T02:23:31;98691.25;;;20.71;50.08
37856;BME280;23694;43.274;26.924;2022-07-06T02:25:57;98692.53;;;20.83;49.42
37856;BME280;23694;43.274;26.924;2022-07-06T02:28:24;98693.19;;;20.54;50.74
37856;BME280;23694;43.274;26.924;2022-07-06T02:30:50;98697.63;;;20.62;50.68
37856;BME280;23694;43.274;26.924;2022-07-06T02:33:16;98690.78;;;20.68;50.97
37856;BME280;23694;43.274;26.924;2022-07-06T02:35:42;98688.59;;;20.71;50.88
37856;BME280;23694;43.274;26.924;2022-07-06T02:38:11;98696.09;;;20.68;51.32
37856;BME280;23694;43.274;26.924;2022-07-06T02:40:38;98685.09;;;20.71;51.31
37856;BME280;23694;43.274;26.924;2022-07-06T02:43:04;98696.69;;;20.86;51.19
37856;BME280;23694;43.274;26.924;2022-07-06T02:45:31;98683.19;;;20.87;51.13
37856;BME280;23694;43.274;26.924;2022-07-06T02:47:57;98684.91;;;21.03;50.87
37856;BME280;23694;43.274;26.924;2022-07-06T02:50:24;98685.84;;;21.10;51.03
37856;BME280;23694;43.274;26.924;2022-07-06T02:52:50;98689.47;;;21.17;50.63
37856;BME280;23694;43.274;26.924;2022-07-06T02:55:17;98691.94;;;21.19;50.46
37856;BME280;23694;43.274;26.924;2022-07-06T02:57:43;98695.13;;;21.23;50.58
37856;BME280;23694;43.274;26.924;2022-07-06T03:00:09;98693.56;;;21.28;50.33
37856;BME280;23694;43.274;26.924;2022-07-06T03:02:36;98695.28;;;21.44;50.01
37856;BME280;23694;43.274;26.924;2022-07-06T03:05:03;98698.94;;;21.66;49.91
37856;BME280;23694;43.274;26.924;2022-07-06T03:07:29;98693.81;;;21.94;48.67
37856;BME280;23694;43.274;26.924;2022-07-06T03:09:55;98696.88;;;22.05;48.89
37856;BME280;23694;43.274;26.924;2022-07-06T03:12:21;98696.03;;;22.05;48.97
37856;BME280;23694;43.274;26.924;2022-07-06T03:14:47;98691.03;;;22.02;49.53
37856;BME280;23694;43.274;26.924;2022-07-06T03:17:13;98694.41;;;22.19;49.62
37856;BME280;23694;43.274;26.924;2022-07-06T03:19:40;98708.84;;;22.09;50.94
37856;BME280;23694;43.274;26.924;2022-07-06T03:22:06;98699.16;;;22.08;50.86
37856;BME280;23694;43.274;26.924;2022-07-06T03:24:32;98697.06;;;22.04;51.82
37856;BME280;23694;43.274;26.924;2022-07-06T03:26:58;98697.00;;;21.74;52.33
37856;BME280;23694;43.274;26.924;2022-07-06T03:29:24;98703.03;;;21.54;53.22
37856;BME280;23694;43.274;26.924;2022-07-06T03:31:50;98703.94;;;21.23;54.64
37856;BME280;23694;43.274;26.924;2022-07-06T03:34:16;98698.94;;;21.20;55.72
37856;BME280;23694;43.274;26.924;2022-07-06T03:36:42;98699.34;;;21.09;56.54
37856;BME280;23694;43.274;26.924;2022-07-06T03:39:08;98695.13;;;21.23;56.50
37856;BME280;23694;43.274;26.924;2022-07-06T03:41:34;98688.72;;;21.55;55.62
37856;BME280;23694;43.274;26.924;2022-07-06T03:44:00;98690.94;;;21.80;55.14
37856;BME280;23694;43.274;26.924;2022-07-06T03:46:27;98698.31;;;21.93;55.24
37856;BME280;23694;43.274;26.924;2022-07-06T03:48:54;98694.63;;;21.94;55.51
37856;BME280;23694;43.274;26.924;2022-07-06T03:51:20;98694.03;;;22.07;55.07
37856;BME280;23694;43.274;26.924;2022-07-06T03:53:46;98691.09;;;22.17;55.25
37856;BME280;23694;43.274;26.924;2022-07-06T03:56:12;98696.31;;;22.10;55.61
37856;BME280;23694;43.274;26.924;2022-07-06T03:58:55;98699.19;;;22.38;54.98
37856;BME280;23694;43.274;26.924;2022-07-06T04:01:21;98692.06;;;22.60;54.41
37856;BME280;23694;43.274;26.924;2022-07-06T04:03:47;98697.19;;;22.76;53.75
37856;BME280;23694;43.274;26.924;2022-07-06T04:06:14;98702.59;;;22.97;52.81
37856;BME280;23694;43.274;26.924;2022-07-06T04:08:40;98695.59;;;22.96;52.75
37856;BME280;23694;43.274;26.924;2022-07-06T04:11:06;98701.06;;;23.31;51.68
37856;BME280;23694;43.274;26.924;2022-07-06T04:13:32;98703.09;;;23.50;50.80
37856;BME280;23694;43.274;26.924;2022-07-06T04:15:59;98700.75;;;23.62;50.41
37856;BME280;23694;43.274;26.924;2022-07-06T04:18:25;98694.06;;;23.51;50.69
37856;BME280;23694;43.274;26.924;2022-07-06T04:20:51;98696.31;;;23.48;50.81
37856;BME280;23694;43.274;26.924;2022-07-06T04:23:17;98701.94;;;23.81;49.80
37856;BME280;23694;43.274;26.924;2022-07-06T04:25:43;98699.94;;;23.89;49.40
37856;BME280;23694;43.274;26.924;2022-07-06T04:28:09;98692.19;;;24.29;48.64
37856;BME280;23694;43.274;26.924;2022-07-06T04:30:35;98694.00;;;24.70;47.45
37856;BME280;23694;43.274;26.924;2022-07-06T04:33:02;98694.50;;;24.93;46.40
37856;BME280;23694;43.274;26.924;2022-07-06T04:35:28;98689.13;;;24.93;46.53
37856;BME280;23694;43.274;26.924;2022-07-06T04:37:54;98696.34;;;24.92;46.63
37856;BME280;23694;43.274;26.924;2022-07-06T04:40:20;98689.59;;;25.03;46.51
37856;BME280;23694;43.274;26.924;2022-07-06T04:42:46;98691.19;;;24.91;46.97
37856;BME280;23694;43.274;26.924;2022-07-06T04:45:12;98696.25;;;25.40;45.64
37856;BME280;23694;43.274;26.924;2022-07-06T04:47:38;98693.38;;;25.55;45.05
37856;BME280;23694;43.274;26.924;2022-07-06T04:50:05;98696.66;;;26.03;44.21
37856;BME280;23694;43.274;26.924;2022-07-06T04:52:31;98695.00;;;26.15;43.68
37856;BME280;23694;43.274;26.924;2022-07-06T04:54:57;98694.13;;;26.35;43.12
37856;BME280;23694;43.274;26.924;2022-07-06T04:57:24;98693.16;;;26.74;42.17
37856;BME280;23694;43.274;26.924;2022-07-06T04:59:52;98701.31;;;26.92;41.90
37856;BME280;23694;43.274;26.924;2022-07-06T05:02:18;98697.91;;;27.16;41.34
37856;BME280;23694;43.274;26.924;2022-07-06T05:04:44;98706.13;;;28.03;39.72
37856;BME280;23694;43.274;26.924;2022-07-06T05:07:10;98705.34;;;28.39;38.72
37856;BME280;23694;43.274;26.924;2022-07-06T05:09:36;98710.94;;;28.56;38.38
37856;BME280;23694;43.274;26.924;2022-07-06T05:12:03;98701.16;;;29.10;37.26
37856;BME280;23694;43.274;26.924;2022-07-06T05:14:29;98705.94;;;29.38;36.51
37856;BME280;23694;43.274;26.924;2022-07-06T05:16:55;98708.50;;;28.72;37.86
37856;BME280;23694;43.274;26.924;2022-07-06T05:19:21;98699.16;;;27.95;39.39
37856;BME280;23694;43.274;26.924;2022-07-06T05:21:47;98700.28;;;26.93;41.82
37856;BME280;23694;43.274;26.924;2022-07-06T05:24:13;98701.59;;;26.00;44.47
37856;BME280;23694;43.274;26.924;2022-07-06T05:26:42;98702.84;;;25.64;45.28
37856;BME280;23694;43.274;26.924;2022-07-06T05:29:08;98706.94;;;25.27;47.06
37856;BME280;23694;43.274;26.924;2022-07-06T05:31:34;98704.06;;;25.28;47.24
37856;BME280;23694;43.274;26.924;2022-07-06T05:34:00;98701.00;;;25.38;46.96
37856;BME280;23694;43.274;26.924;2022-07-06T05:36:26;98708.59;;;25.35;47.56
37856;BME280;23694;43.274;26.924;2022-07-06T05:38:52;98702.59;;;25.13;48.15
37856;BME280;23694;43.274;26.924;2022-07-06T05:41:18;98699.09;;;25.12;48.02
37856;BME280;23694;43.274;26.924;2022-07-06T05:43:44;98698.28;;;25.12;48.54
37856;BME280;23694;43.274;26.924;2022-07-06T05:46:10;98702.38;;;25.01;48.80
37856;BME280;23694;43.274;26.924;2022-07-06T05:48:36;98700.13;;;25.24;48.69
37856;BME280;23694;43.274;26.924;2022-07-06T05:51:21;98704.94;;;25.55;47.71
37856;BME280;23694;43.274;26.924;2022-07-06T05:53:47;98697.09;;;25.60;47.85
37856;BME280;23694;43.274;26.924;2022-07-06T05:56:13;98701.38;;;25.35;48.43
37856;BME280;23694;43.274;26.924;2022-07-06T05:58:40;98699.00;;;24.86;49.83
37856;BME280;23694;43.274;26.924;2022-07-06T06:01:06;98704.38;;;24.92;50.29
37856;BME280;23694;43.274;26.924;2022-07-06T06:03:34;98696.91;;;24.75;50.84
37856;BME280;23694;43.274;26.924;2022-07-06T06:06:00;98691.81;;;24.86;51.23
37856;BME280;23694;43.274;26.924;2022-07-06T06:08:26;98695.91;;;24.76;51.56
37856;BME280;23694;43.274;26.924;2022-07-06T06:10:53;98693.53;;;25.14;51.04
37856;BME280;23694;43.274;26.924;2022-07-06T06:13:19;98697.25;;;25.33;50.04
37856;BME280;23694;43.274;26.924;2022-07-06T06:15:45;98694.00;;;25.70;49.52
37856;BME280;23694;43.274;26.924;2022-07-06T06:18:11;98694.59;;;25.92;49.23
37856;BME280;23694;43.274;26.924;2022-07-06T06:20:38;98696.84;;;26.15;48.67
37856;BME280;23694;43.274;26.924;2022-07-06T06:23:04;98702.13;;;26.48;48.14
37856;BME280;23694;43.274;26.924;2022-07-06T06:25:35;98700.56;;;26.78;46.54
37856;BME280;23694;43.274;26.924;2022-07-06T06:28:02;98703.72;;;26.62;47.67
37856;BME280;23694;43.274;26.924;2022-07-06T06:30:28;98695.84;;;26.74;47.40
37856;BME280;23694;43.274;26.924;2022-07-06T06:33:11;98695.06;;;26.67;47.59
37856;BME280;23694;43.274;26.924;2022-07-06T06:35:45;98701.44;;;26.66;48.47
37856;BME280;23694;43.274;26.924;2022-07-06T06:38:12;98694.72;;;26.43;48.62
37856;BME280;23694;43.274;26.924;2022-07-06T06:40:38;98690.81;;;26.39;49.13
37856;BME280;23694;43.274;26.924;2022-07-06T06:43:05;98691.75;;;26.58;49.04
37856;BME280;23694;43.274;26.924;2022-07-06T06:45:31;98695.97;;;26.41;49.29
37856;BME280;23694;43.274;26.924;2022-07-06T06:47:57;98691.13;;;26.69;48.97
37856;BME280;23694;43.274;26.924;2022-07-06T06:50:23;98695.47;;;27.08;47.90
37856;BME280;23694;43.274;26.924;2022-07-06T06:52:50;98694.00;;;27.44;46.60
37856;BME280;23694;43.274;26.924;2022-07-06T06:55:17;98696.56;;;27.57;46.67
37856;BME280;23694;43.274;26.924;2022-07-06T06:57:44;98694.25;;;27.36;47.45
37856;BME280;23694;43.274;26.924;2022-07-06T07:00:11;98701.97;;;27.26;47.88
37856;BME280;23694;43.274;26.924;2022-07-06T07:02:37;98700.91;;;27.58;46.79
37856;BME280;23694;43.274;26.924;2022-07-06T07:05:05;98696.56;;;27.57;47.05
37856;BME280;23694;43.274;26.924;2022-07-06T07:07:31;98700.59;;;27.48;47.32
37856;BME280;23694;43.274;26.924;2022-07-06T07:09:59;98708.56;;;27.61;47.45
37856;BME280;23694;43.274;26.924;2022-07-06T07:12:25;98702.50;;;27.41;47.55
37856;BME280;23694;43.274;26.924;2022-07-06T07:14:51;98703.97;;;27.37;48.00
37856;BME280;23694;43.274;26.924;2022-07-06T07:17:17;98702.69;;;27.71;47.36
37856;BME280;23694;43.274;26.924;2022-07-06T07:19:43;98701.75;;;27.84;46.80
37856;BME280;23694;43.274;26.924;2022-07-06T07:22:09;98706.25;;;28.33;45.87
37856;BME280;23694;43.274;26.924;2022-07-06T07:24:35;98706.78;;;28.41;45.32
37856;BME280;23694;43.274;26.924;2022-07-06T07:27:02;98705.91;;;28.04;46.41
37856;BME280;23694;43.274;26.924;2022-07-06T07:29:28;98715.75;;;27.92;47.20
37856;BME280;23694;43.274;26.924;2022-07-06T07:31:54;98713.13;;;27.86;47.42
37856;BME280;23694;43.274;26.924;2022-07-06T07:34:20;98713.00;;;28.24;46.93
37856;BME280;23694;43.274;26.924;2022-07-06T07:36:46;98723.06;;;27.85;47.80
37856;BME280;23694;43.274;26.924;2022-07-06T07:39:12;98706.59;;;28.18;47.76
37856;BME280;23694;43.274;26.924;2022-07-06T07:41:39;98709.63;;;28.65;45.44
37856;BME280;23694;43.274;26.924;2022-07-06T07:44:05;98705.41;;;28.87;44.50
37856;BME280;23694;43.274;26.924;2022-07-06T07:46:32;98704.97;;;28.72;45.67
37856;BME280;23694;43.274;26.924;2022-07-06T07:48:58;98696.75;;;28.85;44.63
37856;BME280;23694;43.274;26.924;2022-07-06T07:51:24;98703.66;;;29.64;42.99
37856;BME280;23694;43.274;26.924;2022-07-06T07:53:50;98701.22;;;29.98;41.89
37856;BME280;23694;43.274;26.924;2022-07-06T07:56:16;98702.50;;;29.72;42.60
37856;BME280;23694;43.274;26.924;2022-07-06T07:58:42;98705.22;;;30.19;42.18
37856;BME280;23694;43.274;26.924;2022-07-06T08:01:08;98705.88;;;30.49;39.88
37856;BME280;23694;43.274;26.924;2022-07-06T08:03:35;98701.75;;;30.47;39.70
37856;BME280;23694;43.274;26.924;2022-07-06T08:06:01;98706.47;;;30.63;37.60
37856;BME280;23694;43.274;26.924;2022-07-06T08:08:27;98699.28;;;30.69;37.14
37856;BME280;23694;43.274;26.924;2022-07-06T08:10:53;98701.41;;;30.95;37.00
37856;BME280;23694;43.274;26.924;2022-07-06T08:13:19;98702.13;;;31.19;35.53
37856;BME280;23694;43.274;26.924;2022-07-06T08:15:45;98694.75;;;30.86;35.51
37856;BME280;23694;43.274;26.924;2022-07-06T08:18:12;98703.66;;;31.27;35.95
37856;BME280;23694;43.274;26.924;2022-07-06T08:20:38;98708.19;;;31.54;35.59
37856;BME280;23694;43.274;26.924;2022-07-06T08:23:04;98697.19;;;31.28;35.01
37856;BME280;23694;43.274;26.924;2022-07-06T08:25:31;98703.91;;;31.25;35.55
37856;BME280;23694;43.274;26.924;2022-07-06T08:27:57;98709.19;;;31.82;34.77
37856;BME280;23694;43.274;26.924;2022-07-06T08:30:23;98698.56;;;32.14;34.16
37856;BME280;23694;43.274;26.924;2022-07-06T08:32:49;98704.09;;;32.41;33.24
37856;BME280;23694;43.274;26.924;2022-07-06T08:35:16;98706.28;;;32.44;33.02
37856;BME280;23694;43.274;26.924;2022-07-06T08:37:42;98699.44;;;32.58;33.01
37856;BME280;23694;43.274;26.924;2022-07-06T08:40:09;98694.47;;;32.11;32.37
37856;BME280;23694;43.274;26.924;2022-07-06T08:42:35;98698.81;;;32.12;26.40
37856;BME280;23694;43.274;26.924;2022-07-06T08:45:04;98696.53;;;31.54;27.51
37856;BME280;23694;43.274;26.924;2022-07-06T08:47:31;98696.59;;;31.14;28.80
37856;BME280;23694;43.274;26.924;2022-07-06T08:49:58;98684.66;;;30.81;28.57
37856;BME280;23694;43.274;26.924;2022-07-06T08:52:24;98695.31;;;31.45;29.18
37856;BME280;23694;43.274;26.924;2022-07-06T08:54:51;98692.13;;;31.98;28.95
37856;BME280;23694;43.274;26.924;2022-07-06T08:57:17;98680.78;;;32.23;32.85
37856;BME280;23694;43.274;26.924;2022-07-06T08:59:43;98686.38;;;32.33;33.55
37856;BME280;23694;43.274;26.924;2022-07-06T09:02:10;98689.41;;;32.37;32.66
37856;BME280;23694;43.274;26.924;2022-07-06T09:04:37;98678.31;;;32.60;28.93
37856;BME280;23694;43.274;26.924;2022-07-06T09:07:04;98677.25;;;32.83;29.88
37856;BME280;23694;43.274;26.924;2022-07-06T09:09:30;98686.22;;;32.62;31.65
37856;BME280;23694;43.274;26.924;2022-07-06T09:11:59;98685.88;;;32.58;31.53
37856;BME280;23694;43.274;26.924;2022-07-06T09:14:26;98675.16;;;32.90;30.92
37856;BME280;23694;43.274;26.924;2022-07-06T09:17:02;98673.81;;;32.49;27.05
37856;BME280;23694;43.274;26.924;2022-07-06T09:19:33;98679.63;;;32.36;28.26
37856;BME280;23694;43.274;26.924;2022-07-06T09:22:00;98677.38;;;32.71;31.09
37856;BME280;23694;43.274;26.924;2022-07-06T09:24:26;98680.63;;;32.95;31.09
37856;BME280;23694;43.274;26.924;2022-07-06T09:26:55;98686.75;;;32.86;30.83
37856;BME280;23694;43.274;26.924;2022-07-06T09:29:41;98679.69;;;32.85;30.62
37856;BME280;23694;43.274;26.924;2022-07-06T09:32:07;98679.28;;;32.98;30.72
37856;BME280;23694;43.274;26.924;2022-07-06T09:34:44;98672.19;;;32.70;25.73
37856;BME280;23694;43.274;26.924;2022-07-06T09:37:11;98676.69;;;32.81;26.40
37856;BME280;23694;43.274;26.924;2022-07-06T09:39:37;98672.31;;;33.07;30.05
37856;BME280;23694;43.274;26.924;2022-07-06T09:42:04;98680.25;;;32.43;30.48
37856;BME280;23694;43.274;26.924;2022-07-06T09:44:41;98670.13;;;32.33;30.48
37856;BME280;23694;43.274;26.924;2022-07-06T09:47:09;98669.22;;;32.71;30.43
37856;BME280;23694;43.274;26.924;2022-07-06T09:49:38;98667.56;;;32.92;30.37
37856;BME280;23694;43.274;26.924;2022-07-06T09:52:09;98675.34;;;32.84;31.50
37856;BME280;23694;43.274;26.924;2022-07-06T09:54:37;98673.56;;;32.94;30.12
37856;BME280;23694;43.274;26.924;2022-07-06T09:57:05;98671.75;;;33.05;29.85
37856;BME280;23694;43.274;26.924;2022-07-06T09:59:32;98657.59;;;33.25;30.09
37856;BME280;23694;43.274;26.924;2022-07-06T10:02:00;98659.06;;;33.37;30.27
37856;BME280;23694;43.274;26.924;2022-07-06T10:04:28;98664.75;;;33.36;29.41
37856;BME280;23694;43.274;26.924;2022-07-06T10:06:55;98666.81;;;33.56;29.72
37856;BME280;23694;43.274;26.924;2022-07-06T10:09:24;98664.47;;;33.69;29.68
37856;BME280;23694;43.274;26.924;2022-07-06T10:11:54;98652.56;;;33.76;28.33
37856;BME280;23694;43.274;26.924;2022-07-06T10:14:23;98663.03;;;33.89;27.76
37856;BME280;23694;43.274;26.924;2022-07-06T10:16:50;98665.78;;;33.99;26.63
37856;BME280;23694;43.274;26.924;2022-07-06T10:19:18;98657.63;;;33.94;25.90
37856;BME280;23694;43.274;26.924;2022-07-06T10:21:45;98653.38;;;33.39;26.28
37856;BME280;23694;43.274;26.924;2022-07-06T10:24:12;98647.75;;;33.46;25.35
37856;BME280;23694;43.274;26.924;2022-07-06T10:26:39;98641.53;;;33.50;25.38
37856;BME280;23694;43.274;26.924;2022-07-06T10:29:06;98643.53;;;33.65;25.17
37856;BME280;23694;43.274;26.924;2022-07-06T10:31:34;98647.69;;;33.78;24.28
37856;BME280;23694;43.274;26.924;2022-07-06T10:34:04;98649.88;;;33.81;24.04
37856;BME280;23694;43.274;26.924;2022-07-06T10:36:30;98641.00;;;33.85;24.86
37856;BME280;23694;43.274;26.924;2022-07-06T10:38:57;98639.75;;;34.08;25.53
37856;BME280;23694;43.274;26.924;2022-07-06T10:41:31;98638.66;;;34.09;25.89
37856;BME280;23694;43.274;26.924;2022-07-06T10:43:58;98636.53;;;34.16;25.54
37856;BME280;23694;43.274;26.924;2022-07-06T10:46:39;98632.69;;;34.12;23.41
37856;BME280;23694;43.274;26.924;2022-07-06T10:49:15;98631.75;;;33.86;23.13
37856;BME280;23694;43.274;26.924;2022-07-06T10:51:42;98627.84;;;33.77;23.66
37856;BME280;23694;43.274;26.924;2022-07-06T10:54:09;98629.72;;;33.71;23.33
37856;BME280;23694;43.274;26.924;2022-07-06T10:56:40;98624.19;;;33.56;23.84
37856;BME280;23694;43.274;26.924;2022-07-06T10:59:20;98621.28;;;33.31;24.52
37856;BME280;23694;43.274;26.924;2022-07-06T11:02:11;98617.44;;;33.27;25.02
37856;BME280;23694;43.274;26.924;2022-07-06T11:04:40;98608.63;;;33.42;24.99
37856;BME280;23694;43.274;26.924;2022-07-06T11:07:11;98612.69;;;33.44;24.43
37856;BME280;23694;43.274;26.924;2022-07-06T11:09:38;98612.78;;;33.54;25.32
37856;BME280;23694;43.274;26.924;2022-07-06T11:12:20;98610.03;;;33.86;24.63
37856;BME280;23694;43.274;26.924;2022-07-06T11:14:49;98610.06;;;33.96;23.36
37856;BME280;23694;43.274;26.924;2022-07-06T11:17:16;98612.78;;;33.96;23.63
37856;BME280;23694;43.274;26.924;2022-07-06T11:19:58;98610.72;;;34.19;23.34
37856;BME280;23694;43.274;26.924;2022-07-06T11:22:36;98604.03;;;34.42;23.56
37856;BME280;23694;43.274;26.924;2022-07-06T11:25:03;98603.28;;;34.56;22.76
37856;BME280;23694;43.274;26.924;2022-07-06T11:27:29;98593.78;;;34.69;22.36
37856;BME280;23694;43.274;26.924;2022-07-06T11:29:56;98594.63;;;34.85;20.90
37856;BME280;23694;43.274;26.924;2022-07-06T11:32:27;98592.75;;;34.13;22.56
37856;BME280;23694;43.274;26.924;2022-07-06T11:34:53;98594.13;;;34.20;23.66
37856;BME280;23694;43.274;26.924;2022-07-06T11:37:20;98594.84;;;34.53;22.20
37856;BME280;23694;43.274;26.924;2022-07-06T11:39:47;98582.59;;;34.60;22.89
37856;BME280;23694;43.274;26.924;2022-07-06T11:42:15;98597.56;;;34.63;22.90
37856;BME280;23694;43.274;26.924;2022-07-06T11:44:43;98582.94;;;34.84;22.42
37856;BME280;23694;43.274;26.924;2022-07-06T11:47:10;98586.16;;;34.71;22.85
37856;BME280;23694;43.274;26.924;2022-07-06T11:49:38;98583.69;;;34.59;22.32
37856;BME280;23694;43.274;26.924;2022-07-06T11:52:13;98575.78;;;34.48;20.89
37856;BME280;23694;43.274;26.924;2022-07-06T11:54:40;98582.78;;;33.81;22.52
37856;BME280;23694;43.274;26.924;2022-07-06T11:57:10;98570.06;;;33.82;22.20
37856;BME280;23694;43.274;26.924;2022-07-06T11:59:39;98577.50;;;34.01;22.65
37856;BME280;23694;43.274;26.924;2022-07-06T12:04:35;98557.41;;;34.08;21.97
37856;BME280;23694;43.274;26.924;2022-07-06T12:07:03;98557.09;;;33.52;21.73
37856;BME280;23694;43.274;26.924;2022-07-06T12:09:31;98559.06;;;33.24;22.76
37856;BME280;23694;43.274;26.924;2022-07-06T12:11:57;98550.53;;;33.43;22.71
37856;BME280;23694;43.274;26.924;2022-07-06T12:14:24;98549.81;;;33.62;23.56
37856;BME280;23694;43.274;26.924;2022-07-06T12:16:50;98539.72;;;34.00;23.66
37856;BME280;23694;43.274;26.924;2022-07-06T12:19:16;98548.75;;;34.21;23.27
37856;BME280;23694;43.274;26.924;2022-07-06T12:21:47;98548.84;;;34.46;23.16
37856;BME280;23694;43.274;26.924;2022-07-06T12:24:21;98541.00;;;34.65;22.66
37856;BME280;23694;43.274;26.924;2022-07-06T12:26:47;98540.47;;;34.73;21.68
37856;BME280;23694;43.274;26.924;2022-07-06T12:29:14;98533.09;;;34.63;21.43
37856;BME280;23694;43.274;26.924;2022-07-06T12:34:23;98542.34;;;34.52;22.19
37856;BME280;23694;43.274;26.924;2022-07-06T12:36:52;98544.97;;;34.32;22.19
37856;BME280;23694;43.274;26.924;2022-07-06T12:39:21;98535.22;;;34.36;21.20
37856;BME280;23694;43.274;26.924;2022-07-06T12:41:52;98533.19;;;33.96;21.48
37856;BME280;23694;43.274;26.924;2022-07-06T12:44:23;98525.44;;;33.78;23.08
37856;BME280;23694;43.274;26.924;2022-07-06T12:47:06;98526.06;;;33.37;23.25
37856;BME280;23694;43.274;26.924;2022-07-06T12:49:34;98516.44;;;32.34;24.75
37856;BME280;23694;43.274;26.924;2022-07-06T12:59:46;98514.56;;;34.35;23.68
37856;BME280;23694;43.274;26.924;2022-07-06T13:02:29;98511.63;;;34.52;23.83
37856;BME280;23694;43.274;26.924;2022-07-06T13:05:00;98506.19;;;34.57;22.31
37856;BME280;23694;43.274;26.924;2022-07-06T13:07:26;98515.69;;;34.59;22.70